Terminal Aerodrome Forecast
Issued by NWS Wilmington, NC

Home | Current Version | Previous Version | Text Only | Print | Product List | Glossary On
Versions: 1 2 3 4 5 6 7 8 9 10 11 12 13
233
FTUS42 KILM 230704 AAA
TAFLBT
TAF AMD
KLBT 230704Z 2307/2406 04009KT P6SM BKN015
      TEMPO 2307/2310 OVC008
     FM231000 05009KT P6SM VCSH OVC010
      TEMPO 2310/2314 P6SM OVC008
     FM231600 06010KT P6SM OVC010 PROB30 2316/2321 3SM -SHRA BKN005
     FM232100 09011KT P6SM -SHRA OVC015
     FM240000 09010KT 3SM SHRA OVC015=

USA.gov is the U.S. government's official web portal to all federal, state and local government web resources and services.